Time;durP1;ratioP1;P1;durP2;ratioP2;P2;SDS_P1;SDS_P2;PMS_P1;PMS_P2;Temp;Humidity;BMP_temperature;BMP_pressure;BME280_temperature;BME280_humidity;BME280_pressure;Samples;Min_cycle;Max_cycle;Signal;HPM_P1;HPM_P2
2021/01/03 00:01:45;;;;;;;46.63;21.33;;;3.90;99.90;;;;;;5024054;28;20200;-45
2021/01/03 00:04:10;;;;;;;50.00;21.60;;;3.90;99.90;;;;;;5026681;28;20180;-47
2021/01/03 00:06:36;;;;;;;52.40;22.40;;;3.90;99.90;;;;;;5015249;28;20195;-50
2021/01/03 00:09:02;;;;;;;54.90;22.83;;;3.90;99.90;;;;;;5030417;28;20728;-49
2021/01/03 00:11:27;;;;;;;49.70;20.57;;;3.90;99.90;;;;;;5047000;28;20222;-52
2021/01/03 00:13:53;;;;;;;47.73;19.87;;;3.90;99.90;;;;;;5043009;28;20672;-47
2021/01/03 00:16:18;;;;;;;51.17;22.00;;;3.90;99.90;;;;;;5028025;28;20230;-47
2021/01/03 00:18:44;;;;;;;49.33;22.27;;;3.90;99.90;;;;;;5023302;28;20214;-46
2021/01/03 00:21:10;;;;;;;53.87;21.80;;;3.90;99.90;;;;;;5015596;28;20228;-49
2021/01/03 00:23:36;;;;;;;52.33;21.53;;;3.90;99.90;;;;;;5026221;28;20589;-45
2021/01/03 00:26:01;;;;;;;45.47;21.00;;;3.90;99.90;;;;;;5024534;28;20242;-50
2021/01/03 00:28:27;;;;;;;45.03;20.23;;;3.90;99.90;;;;;;5025086;28;20222;-49
2021/01/03 00:30:52;;;;;;;49.33;21.50;;;3.90;99.90;;;;;;5021855;28;20770;-46
2021/01/03 00:33:18;;;;;;;48.87;21.13;;;3.90;99.90;;;;;;5026407;28;20186;-49
2021/01/03 00:35:43;;;;;;;52.40;22.30;;;3.90;99.90;;;;;;5023293;28;20542;-45
2021/01/03 00:38:11;;;;;;;50.60;22.17;;;3.90;99.90;;;;;;5015215;28;20306;-48
2021/01/03 00:40:37;;;;;;;50.70;22.20;;;3.90;99.90;;;;;;5020190;28;20227;-46
2021/01/03 00:43:04;;;;;;;44.70;21.53;;;3.90;99.90;;;;;;5024545;28;20208;-50
2021/01/03 00:45:30;;;;;;;49.20;22.27;;;3.90;99.90;;;;;;5026244;28;20227;-46
2021/01/03 00:47:57;;;;;;;46.27;20.80;;;3.90;99.90;;;;;;5022783;28;20366;-49
2021/01/03 00:50:22;;;;;;;51.67;22.33;;;3.90;99.90;;;;;;5025809;28;20227;-47
2021/01/03 00:52:48;;;;;;;51.20;20.77;;;3.90;99.90;;;;;;5011687;28;20184;-46
2021/01/03 00:55:13;;;;;;;54.43;24.23;;;3.90;99.90;;;;;;5021886;28;20652;-47
2021/01/03 00:57:39;;;;;;;59.33;23.37;;;3.90;99.90;;;;;;5023552;28;20242;-45
2021/01/03 01:00:26;;;;;;;55.57;21.70;;;3.90;99.90;;;;;;5022854;28;20287;-50
2021/01/03 01:02:52;;;;;;;46.53;21.73;;;3.90;99.90;;;;;;5001657;28;20840;-46
2021/01/03 01:05:19;;;;;;;52.77;23.23;;;3.80;99.90;;;;;;5006018;28;20176;-47
2021/01/03 01:07:45;;;;;;;55.43;23.00;;;3.80;99.90;;;;;;4996215;28;20537;-46
2021/01/03 01:10:19;;;;;;;57.17;23.60;;;3.80;99.90;;;;;;5022595;28;20215;-52
2021/01/03 01:12:45;;;;;;;55.57;22.63;;;3.80;99.90;;;;;;5017489;28;20200;-46
2021/01/03 01:15:18;;;;;;;54.70;22.53;;;3.80;99.90;;;;;;5024578;28;20235;-49
2021/01/03 01:17:48;;;;;;;51.70;22.67;;;3.90;99.90;;;;;;5022237;28;20206;-47
2021/01/03 01:20:14;;;;;;;55.17;23.87;;;3.80;99.90;;;;;;5024928;28;20680;-49
2021/01/03 01:22:40;;;;;;;56.13;24.17;;;3.90;99.90;;;;;;5022618;28;20174;-46
2021/01/03 01:25:07;;;;;;;56.20;22.77;;;3.80;99.90;;;;;;5012790;28;20275;-51
2021/01/03 01:27:32;;;;;;;52.20;22.00;;;3.80;99.90;;;;;;5018984;28;20597;-45
2021/01/03 01:29:58;;;;;;;50.67;23.17;;;3.80;99.90;;;;;;5021465;28;20283;-47
2021/01/03 01:32:24;;;;;;;59.30;24.07;;;3.80;99.90;;;;;;5025843;28;20200;-47
2021/01/03 01:34:50;;;;;;;54.30;24.93;;;3.90;99.90;;;;;;5014472;28;20603;-50
2021/01/03 01:37:15;;;;;;;53.33;23.60;;;3.80;99.90;;;;;;5023674;28;20184;-48
2021/01/03 01:39:41;;;;;;;56.10;25.03;;;3.80;99.90;;;;;;5012769;28;20196;-45
2021/01/03 01:42:06;;;;;;;61.53;25.13;;;3.80;99.90;;;;;;5021699;28;20231;-48
2021/01/03 01:44:31;;;;;;;57.37;25.17;;;3.80;99.90;;;;;;5018850;28;20806;-46
2021/01/03 01:47:22;;;;;;;53.87;23.33;;;3.80;99.90;;;;;;5022980;28;20180;-47
2021/01/03 01:49:47;;;;;;;51.07;22.37;;;3.80;99.90;;;;;;5020574;28;20933;-49
2021/01/03 01:52:16;;;;;;;50.07;21.77;;;3.80;99.90;;;;;;5025609;28;20262;-46
2021/01/03 01:54:47;;;;;;;57.93;24.60;;;3.70;99.90;;;;;;5021581;28;20226;-46
2021/01/03 01:57:24;;;;;;;48.20;22.70;;;3.70;99.90;;;;;;5015060;28;20216;-49
2021/01/03 02:00:04;;;;;;;49.97;22.57;;;3.80;99.90;;;;;;5016258;28;20470;-46
2021/01/03 02:02:33;;;;;;;50.37;22.47;;;3.70;99.90;;;;;;5024055;28;20219;-45
2021/01/03 02:05:10;;;;;;;51.10;22.07;;;3.70;99.90;;;;;;5023863;28;20172;-48
2021/01/03 02:07:45;;;;;;;46.13;20.97;;;3.70;99.90;;;;;;5022475;28;20226;-47
2021/01/03 02:10:34;;;;;;;49.67;21.93;;;3.70;99.90;;;;;;5023290;28;20313;-48
2021/01/03 02:13:22;;;;;;;57.07;23.77;;;3.70;99.90;;;;;;4999475;28;20188;-46
2021/01/03 02:15:49;;;;;;;51.20;21.70;;;3.70;99.90;;;;;;5016866;28;20172;-48
2021/01/03 02:18:15;;;;;;;50.23;22.03;;;3.70;99.90;;;;;;5024860;28;20313;-52
2021/01/03 02:20:53;;;;;;;62.73;21.97;;;3.70;99.90;;;;;;5021357;28;20674;-48
2021/01/03 02:23:30;;;;;;;52.07;22.33;;;3.70;99.90;;;;;;5025192;28;20184;-49
2021/01/03 02:25:57;;;;;;;57.03;22.20;;;3.70;99.90;;;;;;5021094;28;20176;-47
2021/01/03 02:28:23;;;;;;;53.97;22.73;;;3.60;99.90;;;;;;5014419;28;20212;-52
2021/01/03 02:30:53;;;;;;;45.90;21.90;;;3.60;99.90;;;;;;5016181;28;20299;-49
2021/01/03 02:33:36;;;;;;;49.10;21.50;;;3.60;99.90;;;;;;5023621;28;20218;-49
2021/01/03 02:36:07;;;;;;;58.47;22.77;;;3.60;99.90;;;;;;5016532;28;20279;-53
2021/01/03 02:38:38;;;;;;;62.47;24.30;;;3.60;99.90;;;;;;5023457;28;20211;-45
2021/01/03 02:41:03;;;;;;;55.53;21.43;;;3.60;99.90;;;;;;5023218;28;20903;-48
2021/01/03 02:43:29;;;;;;;58.37;21.87;;;3.60;99.90;;;;;;5013845;28;20196;-47
2021/01/03 02:45:54;;;;;;;52.80;21.27;;;3.60;99.90;;;;;;5021230;28;20225;-48
2021/01/03 02:48:22;;;;;;;52.70;23.03;;;3.60;99.90;;;;;;5020979;28;20259;-46
2021/01/03 02:50:48;;;;;;;52.07;21.93;;;3.60;99.90;;;;;;5020249;28;20214;-50
2021/01/03 02:53:15;;;;;;;52.50;21.53;;;3.60;99.90;;;;;;5024996;28;20527;-49
2021/01/03 02:55:40;;;;;;;51.67;20.83;;;3.60;99.90;;;;;;5021351;28;20259;-47
2021/01/03 02:58:06;;;;;;;45.73;19.77;;;3.60;99.90;;;;;;5028372;28;20275;-50
2021/01/03 03:00:36;;;;;;;54.97;21.27;;;3.60;99.90;;;;;;5017076;28;20207;-48
2021/01/03 03:03:02;;;;;;;51.13;21.23;;;3.60;99.90;;;;;;5021452;28;20176;-49
2021/01/03 03:05:28;;;;;;;45.93;19.27;;;3.60;99.90;;;;;;5027870;28;20628;-47
2021/01/03 03:07:53;;;;;;;48.80;20.43;;;3.60;99.90;;;;;;5019574;28;20283;-48
2021/01/03 03:10:20;;;;;;;54.70;22.73;;;3.60;99.90;;;;;;5027914;28;20196;-45
2021/01/03 03:12:50;;;;;;;48.03;20.40;;;3.60;99.90;;;;;;5024186;28;20206;-47
2021/01/03 03:15:17;;;;;;;48.57;19.40;;;3.60;99.90;;;;;;5017971;28;20192;-50
2021/01/03 03:17:43;;;;;;;45.30;18.67;;;3.60;99.90;;;;;;5021464;28;20204;-46
2021/01/03 03:20:10;;;;;;;43.87;20.20;;;3.60;99.90;;;;;;5046488;28;20246;-48
2021/01/03 03:22:36;;;;;;;44.20;19.07;;;3.60;99.90;;;;;;5045909;28;20241;-49
2021/01/03 03:25:02;;;;;;;53.57;20.53;;;3.60;99.90;;;;;;5046113;28;20637;-51
2021/01/03 03:27:28;;;;;;;49.33;19.37;;;3.60;99.90;;;;;;5047551;28;20245;-49
2021/01/03 03:29:53;;;;;;;49.80;19.13;;;3.60;99.90;;;;;;5044850;28;20343;-47
2021/01/03 03:32:18;;;;;;;49.77;19.13;;;3.70;99.90;;;;;;5022417;28;20676;-50
2021/01/03 03:34:44;;;;;;;49.37;20.20;;;3.60;99.90;;;;;;5019672;28;20219;-46
2021/01/03 03:37:09;;;;;;;51.73;19.57;;;3.70;99.90;;;;;;5026722;28;20211;-49
2021/01/03 03:39:35;;;;;;;41.57;17.73;;;3.70;99.90;;;;;;5025327;28;20548;-47
2021/01/03 03:42:01;;;;;;;42.47;18.03;;;3.70;99.90;;;;;;5025739;28;20222;-50
2021/01/03 03:44:28;;;;;;;38.03;16.73;;;3.60;99.90;;;;;;5027399;28;20200;-50
2021/01/03 03:46:56;;;;;;;41.53;17.57;;;3.60;99.90;;;;;;5014303;28;20386;-48
2021/01/03 03:49:22;;;;;;;41.83;17.27;;;3.60;99.90;;;;;;5020165;28;20219;-47
2021/01/03 03:51:55;;;;;;;40.20;17.60;;;3.60;99.90;;;;;;5022219;28;20222;-49
2021/01/03 03:54:21;;;;;;;44.47;19.13;;;3.60;99.90;;;;;;5027255;28;20184;-49
2021/01/03 03:56:58;;;;;;;36.10;16.30;;;3.60;99.90;;;;;;5022080;28;20802;-47
2021/01/03 03:59:24;;;;;;;43.73;16.57;;;3.60;99.90;;;;;;5026892;28;20179;-47
2021/01/03 04:01:51;;;;;;;44.27;16.90;;;3.60;99.90;;;;;;5022837;28;20204;-49
2021/01/03 04:04:17;;;;;;;38.93;16.20;;;3.70;99.90;;;;;;5012055;28;20234;-49
2021/01/03 04:06:42;;;;;;;40.33;16.57;;;3.70;99.90;;;;;;5023008;28;20215;-46
2021/01/03 04:09:09;;;;;;;37.80;15.60;;;3.70;99.90;;;;;;5026431;28;20230;-50
2021/01/03 04:11:39;;;;;;;45.53;16.57;;;3.70;99.90;;;;;;5025344;28;20200;-47
2021/01/03 04:14:05;;;;;;;35.90;15.00;;;3.70;99.90;;;;;;5025960;28;20184;-47
2021/01/03 04:16:31;;;;;;;38.57;15.13;;;3.70;99.90;;;;;;5026050;28;20169;-46
2021/01/03 04:18:56;;;;;;;34.30;14.10;;;3.70;99.90;;;;;;5009134;28;20507;-48
2021/01/03 04:21:22;;;;;;;32.97;13.83;;;3.70;99.90;;;;;;5026886;28;20294;-50
2021/01/03 04:23:47;;;;;;;42.47;15.30;;;3.70;99.90;;;;;;5022539;28;20207;-53
2021/01/03 04:26:18;;;;;;;28.97;14.07;;;3.70;99.90;;;;;;5026859;28;20303;-51
2021/01/03 04:28:44;;;;;;;35.73;13.27;;;3.70;99.90;;;;;;5020596;28;20200;-45
2021/01/03 04:31:09;;;;;;;29.43;13.60;;;3.70;99.90;;;;;;5026747;28;20200;-50
2021/01/03 04:33:35;;;;;;;29.80;13.07;;;3.70;99.90;;;;;;5019684;28;20180;-47
2021/01/03 04:36:00;;;;;;;32.63;13.03;;;3.80;99.90;;;;;;5015552;28;20381;-48
2021/01/03 04:38:26;;;;;;;34.13;13.70;;;3.80;99.90;;;;;;5026545;28;20660;-48
2021/01/03 04:40:55;;;;;;;30.20;13.43;;;3.70;99.90;;;;;;5022416;28;20196;-48
2021/01/03 04:43:21;;;;;;;28.40;12.83;;;3.70;99.90;;;;;;5027133;28;20230;-53
2021/01/03 04:45:46;;;;;;;34.10;13.80;;;3.70;99.90;;;;;;5022384;28;20187;-50
2021/01/03 04:48:23;;;;;;;30.80;13.37;;;3.70;99.90;;;;;;5026788;28;20184;-50
2021/01/03 04:51:12;;;;;;;32.37;13.23;;;3.70;99.90;;;;;;5006372;28;20397;-47
2021/01/03 04:54:00;;;;;;;30.23;13.07;;;3.70;99.90;;;;;;5023646;28;20180;-46
2021/01/03 04:56:42;;;;;;;31.67;12.77;;;3.70;99.90;;;;;;5026170;28;20229;-45
2021/01/03 04:59:15;;;;;;;24.83;12.33;;;3.70;99.90;;;;;;5025514;28;20183;-48
2021/01/03 05:01:52;;;;;;;28.03;12.93;;;3.70;99.90;;;;;;5014283;28;20235;-47
2021/01/03 05:04:55;;;;;;;27.97;12.70;;;3.70;99.90;;;;;;5019837;28;20706;-45
2021/01/03 05:07:26;;;;;;;25.43;12.23;;;3.70;99.90;;;;;;5012046;28;20203;-46
2021/01/03 05:10:00;;;;;;;25.07;12.97;;;3.70;99.90;;;;;;5024940;28;20216;-50
2021/01/03 05:12:32;;;;;;;23.50;12.10;;;3.70;99.90;;;;;;5023537;28;20172;-48
2021/01/03 05:15:06;;;;;;;21.33;11.53;;;3.70;99.90;;;;;;5025846;28;20589;-48
2021/01/03 05:17:31;;;;;;;22.80;11.77;;;3.70;99.90;;;;;;5021650;28;20863;-48
2021/01/03 05:19:56;;;;;;;24.57;12.90;;;3.70;99.90;;;;;;5023873;28;20249;-46
2021/01/03 05:22:33;;;;;;;23.93;12.10;;;3.70;99.90;;;;;;5002048;28;20861;-44
2021/01/03 05:25:01;;;;;;;20.57;10.97;;;3.60;99.90;;;;;;5019073;28;20182;-47
2021/01/03 05:27:28;;;;;;;20.67;11.70;;;3.60;99.90;;;;;;5021976;28;20293;-45
2021/01/03 05:30:14;;;;;;;22.17;12.17;;;3.60;99.90;;;;;;5025023;28;20196;-49
2021/01/03 05:32:40;;;;;;;24.53;11.87;;;3.60;99.90;;;;;;5022937;28;20176;-48
2021/01/03 05:35:18;;;;;;;24.80;12.10;;;3.60;99.90;;;;;;5025677;28;20224;-47
2021/01/03 05:37:45;;;;;;;21.47;11.70;;;3.60;99.90;;;;;;5007536;28;20393;-47
2021/01/03 05:40:31;;;;;;;22.13;10.37;;;3.60;99.90;;;;;;5025064;28;20290;-47
2021/01/03 05:43:25;;;;;;;18.47;10.67;;;3.60;99.90;;;;;;5025708;28;20180;-45
2021/01/03 05:46:06;;;;;;;18.60;10.80;;;3.60;99.90;;;;;;5022317;28;20235;-47
2021/01/03 05:48:39;;;;;;;19.40;10.23;;;3.60;99.90;;;;;;5021403;28;20230;-47
2021/01/03 05:51:36;;;;;;;23.53;11.83;;;3.60;99.90;;;;;;5025402;28;20200;-49
2021/01/03 05:54:15;;;;;;;21.27;10.23;;;3.60;99.90;;;;;;5015147;28;20188;-51
2021/01/03 05:56:43;;;;;;;16.33;10.03;;;3.60;99.90;;;;;;5022512;28;20179;-51
2021/01/03 05:59:14;;;;;;;16.73;10.20;;;3.60;99.90;;;;;;5024709;28;20187;-51
2021/01/03 06:01:39;;;;;;;19.23;10.60;;;3.60;99.90;;;;;;5021568;28;20243;-47
2021/01/03 06:04:19;;;;;;;17.07;10.13;;;3.60;99.90;;;;;;5024958;28;20682;-48
2021/01/03 06:06:51;;;;;;;19.77;11.43;;;3.60;99.90;;;;;;5022932;28;20176;-48
2021/01/03 06:09:19;;;;;;;18.60;10.63;;;3.60;99.90;;;;;;5011230;28;20337;-48
2021/01/03 06:12:02;;;;;;;21.73;9.90;;;3.60;99.90;;;;;;5022121;28;20207;-48
2021/01/03 06:14:29;;;;;;;15.13;10.10;;;3.60;99.90;;;;;;5020827;28;20187;-47
2021/01/03 06:17:14;;;;;;;16.40;10.33;;;3.60;99.90;;;;;;5024769;28;20164;-50
2021/01/03 06:19:51;;;;;;;13.50;9.13;;;3.60;99.90;;;;;;5021538;28;20237;-48
2021/01/03 06:23:11;;;;;;;16.63;9.93;;;3.60;99.90;;;;;;5023515;28;20270;-47
2021/01/03 06:25:44;;;;;;;14.97;8.73;;;3.60;99.90;;;;;;4950266;28;20459;-48
2021/01/03 06:28:10;;;;;;;17.77;9.70;;;3.60;99.90;;;;;;5013662;28;20196;-46
2021/01/03 06:30:38;;;;;;;17.10;10.20;;;3.60;99.90;;;;;;5023153;28;20196;-49
2021/01/03 06:33:36;;;;;;;14.47;9.20;;;3.60;99.90;;;;;;5031514;28;20168;-50
2021/01/03 06:36:13;;;;;;;15.17;9.00;;;3.60;99.90;;;;;;5031442;28;20176;-48
2021/01/03 06:38:44;;;;;;;15.47;9.47;;;3.60;99.90;;;;;;5027724;28;20230;-47
2021/01/03 06:41:28;;;;;;;15.63;9.70;;;3.60;99.90;;;;;;5020234;28;20555;-45
2021/01/03 06:44:12;;;;;;;18.40;9.43;;;3.60;99.90;;;;;;5028339;28;20203;-48
2021/01/03 06:47:07;;;;;;;18.33;9.77;;;3.60;99.90;;;;;;5027995;28;20409;-48
2021/01/03 06:49:54;;;;;;;14.63;9.10;;;3.60;99.90;;;;;;5028897;28;20203;-47
2021/01/03 06:52:44;;;;;;;18.43;9.63;;;3.60;99.90;;;;;;5027607;28;20616;-48
2021/01/03 06:55:44;;;;;;;20.63;10.20;;;3.60;99.90;;;;;;5011439;28;20187;-48
2021/01/03 06:58:33;;;;;;;15.60;10.10;;;3.60;99.90;;;;;;5020903;28;20168;-45
2021/01/03 07:01:01;;;;;;;15.43;8.97;;;3.50;99.90;;;;;;5028896;28;20307;-47
2021/01/03 07:03:34;;;;;;;14.53;8.97;;;3.50;99.90;;;;;;5029121;28;20183;-46
2021/01/03 07:06:01;;;;;;;16.03;9.40;;;3.50;99.90;;;;;;5028556;28;20168;-47
2021/01/03 07:08:30;;;;;;;18.20;10.77;;;3.50;99.90;;;;;;5027734;28;20272;-48
2021/01/03 07:10:56;;;;;;;16.27;9.87;;;3.50;99.90;;;;;;5012852;28;20802;-48
2021/01/03 07:13:27;;;;;;;17.27;9.33;;;3.50;99.90;;;;;;5023911;28;20279;-51
2021/01/03 07:16:03;;;;;;;13.77;9.40;;;3.50;99.90;;;;;;5008532;28;20173;-50
2021/01/03 07:18:43;;;;;;;14.70;8.50;;;3.50;99.90;;;;;;5010660;28;20172;-48
2021/01/03 07:21:08;;;;;;;16.10;9.20;;;3.50;99.90;;;;;;5007420;28;20927;-50
2021/01/03 07:23:41;;;;;;;16.07;8.43;;;3.50;99.90;;;;;;5011485;28;20181;-51
2021/01/03 07:26:28;;;;;;;12.93;8.47;;;3.50;99.90;;;;;;5002275;28;20431;-46
2021/01/03 07:28:56;;;;;;;12.40;8.37;;;3.40;99.90;;;;;;5023053;28;20296;-45
2021/01/03 07:31:42;;;;;;;13.73;8.43;;;3.40;99.90;;;;;;5029438;28;20191;-49
2021/01/03 07:34:20;;;;;;;17.50;9.67;;;3.40;99.90;;;;;;5027212;28;20152;-49
2021/01/03 07:36:53;;;;;;;13.93;8.10;;;3.40;99.90;;;;;;5030568;28;20882;-48
2021/01/03 07:39:21;;;;;;;13.83;7.53;;;3.40;99.90;;;;;;5030105;28;20168;-48
2021/01/03 07:41:48;;;;;;;12.47;8.40;;;3.40;99.90;;;;;;5027054;28;20300;-49
2021/01/03 07:44:20;;;;;;;11.53;7.27;;;3.40;99.90;;;;;;5017564;28;20238;-51
2021/01/03 07:46:52;;;;;;;10.90;7.20;;;3.40;99.90;;;;;;5031038;28;20234;-46
2021/01/03 07:49:28;;;;;;;10.93;6.53;;;3.40;99.90;;;;;;5028204;28;20305;-50
2021/01/03 07:51:55;;;;;;;10.30;6.80;;;3.40;99.90;;;;;;5021794;28;20192;-46
2021/01/03 07:54:20;;;;;;;11.87;7.13;;;3.40;99.90;;;;;;5030225;28;20188;-53
2021/01/03 07:56:46;;;;;;;9.20;6.23;;;3.40;99.90;;;;;;5026918;28;20263;-47
2021/01/03 07:59:14;;;;;;;10.03;6.17;;;3.40;99.90;;;;;;5015615;28;20195;-48
2021/01/03 08:01:46;;;;;;;10.73;6.77;;;3.40;99.90;;;;;;5028574;28;20568;-52
2021/01/03 08:04:20;;;;;;;9.63;6.57;;;3.40;99.90;;;;;;5028190;28;20168;-53
2021/01/03 08:06:45;;;;;;;8.57;6.40;;;3.40;99.90;;;;;;5028070;28;20299;-49
2021/01/03 08:09:11;;;;;;;10.73;6.53;;;3.40;99.90;;;;;;5028596;28;20196;-53
2021/01/03 08:11:39;;;;;;;12.43;7.17;;;3.40;99.90;;;;;;5031080;28;20275;-48
2021/01/03 08:14:27;;;;;;;11.67;7.33;;;3.40;99.90;;;;;;5008488;28;20227;-54
2021/01/03 08:16:59;;;;;;;11.13;7.20;;;3.40;99.90;;;;;;5018523;28;20208;-46
2021/01/03 08:19:24;;;;;;;15.80;7.77;;;3.40;99.90;;;;;;5030269;28;20179;-52
2021/01/03 08:21:55;;;;;;;9.20;6.57;;;3.40;99.90;;;;;;5027799;28;20282;-50
2021/01/03 08:24:21;;;;;;;10.83;6.93;;;3.40;99.90;;;;;;5031297;28;20188;-52
2021/01/03 08:27:11;;;;;;;10.13;6.17;;;3.40;99.90;;;;;;5028199;28;20187;-52
2021/01/03 08:29:42;;;;;;;12.83;6.93;;;3.40;99.90;;;;;;5023685;28;20208;-49
2021/01/03 08:32:23;;;;;;;7.80;5.90;;;3.40;99.90;;;;;;5017286;28;20179;-50
2021/01/03 08:34:49;;;;;;;10.93;7.03;;;3.40;99.90;;;;;;5027406;28;20180;-47
2021/01/03 08:37:16;;;;;;;10.93;6.57;;;3.40;99.90;;;;;;5028413;28;20176;-48
2021/01/03 08:39:42;;;;;;;11.30;8.33;;;3.40;99.90;;;;;;5028492;28;20187;-49
2021/01/03 08:42:14;;;;;;;8.43;6.53;;;3.40;99.90;;;;;;5027702;28;20176;-48
2021/01/03 08:44:47;;;;;;;8.43;6.20;;;3.40;99.90;;;;;;5028373;28;20227;-48
2021/01/03 08:47:27;;;;;;;8.10;6.13;;;3.40;99.90;;;;;;5015741;28;20473;-48
2021/01/03 08:50:09;;;;;;;14.00;6.50;;;3.40;99.90;;;;;;5017444;28;20207;-49
2021/01/03 08:52:36;;;;;;;9.17;6.33;;;3.40;99.90;;;;;;5030668;28;20172;-52
2021/01/03 08:55:04;;;;;;;7.50;5.67;;;3.40;99.90;;;;;;5025211;28;20725;-50
2021/01/03 08:57:30;;;;;;;8.37;5.57;;;3.40;99.90;;;;;;5029884;28;20244;-50
2021/01/03 08:59:57;;;;;;;6.63;5.17;;;3.50;99.90;;;;;;5019686;28;20983;-50
2021/01/03 09:02:25;;;;;;;8.17;5.43;;;3.50;99.90;;;;;;5013688;28;20656;-49
2021/01/03 09:04:57;;;;;;;6.53;5.23;;;3.50;99.90;;;;;;5021916;28;20218;-47
2021/01/03 09:07:24;;;;;;;5.43;4.47;;;3.50;99.90;;;;;;5020065;28;20569;-49
2021/01/03 09:09:51;;;;;;;6.43;4.90;;;3.50;99.90;;;;;;5013580;28;20656;-45
2021/01/03 09:12:40;;;;;;;6.57;4.77;;;3.50;99.90;;;;;;5026241;28;20212;-48
2021/01/03 09:15:21;;;;;;;7.27;4.70;;;3.50;99.90;;;;;;5026614;28;20176;-52
2021/01/03 09:18:08;;;;;;;6.67;5.40;;;3.60;99.90;;;;;;5011039;28;20191;-46
2021/01/03 09:20:49;;;;;;;8.00;5.47;;;3.60;99.90;;;;;;5024083;28;20235;-51
2021/01/03 09:23:20;;;;;;;8.73;5.83;;;3.50;99.90;;;;;;5027526;28;20187;-50
2021/01/03 09:25:55;;;;;;;7.67;5.70;;;3.50;99.90;;;;;;5024971;28;20243;-50
2021/01/03 09:28:27;;;;;;;7.10;5.77;;;3.50;99.90;;;;;;5023382;28;20266;-50
2021/01/03 09:31:16;;;;;;;7.93;6.10;;;3.50;99.90;;;;;;5024084;28;20211;-49
2021/01/03 09:33:49;;;;;;;6.97;5.30;;;3.50;99.90;;;;;;4999630;28;20205;-53
2021/01/03 09:36:28;;;;;;;8.57;5.53;;;3.50;99.90;;;;;;5013456;28;20563;-51
2021/01/03 09:39:06;;;;;;;7.57;5.47;;;3.40;99.90;;;;;;5028624;28;20218;-50
2021/01/03 09:41:49;;;;;;;8.30;5.73;;;3.40;99.90;;;;;;5017321;28;20258;-49
2021/01/03 09:44:30;;;;;;;5.93;5.27;;;3.40;99.90;;;;;;5023569;28;20195;-52
2021/01/03 09:47:05;;;;;;;7.10;5.43;;;3.40;99.90;;;;;;5018239;28;20921;-51
2021/01/03 09:49:43;;;;;;;8.40;5.37;;;3.40;99.90;;;;;;5015166;28;20726;-49
2021/01/03 09:52:23;;;;;;;6.43;5.40;;;3.40;99.90;;;;;;5020346;28;20179;-51
2021/01/03 09:55:08;;;;;;;8.10;5.73;;;3.40;99.90;;;;;;5023615;28;20188;-53
2021/01/03 09:57:44;;;;;;;8.13;5.73;;;3.30;99.90;;;;;;5023952;28;20184;-48
2021/01/03 10:00:17;;;;;;;8.40;5.90;;;3.40;99.90;;;;;;5027728;28;20204;-55
2021/01/03 10:02:43;;;;;;;8.13;6.27;;;3.40;99.90;;;;;;5019916;28;20184;-48
2021/01/03 10:05:30;;;;;;;7.77;5.53;;;3.50;99.90;;;;;;5028472;28;20250;-52
2021/01/03 10:08:08;;;;;;;8.33;6.10;;;3.60;99.90;;;;;;5011776;28;20188;-54
2021/01/03 10:10:41;;;;;;;8.83;6.10;;;3.70;99.90;;;;;;5024305;28;20561;-49
2021/01/03 10:13:08;;;;;;;9.10;6.00;;;3.80;99.90;;;;;;5023043;28;20540;-53
2021/01/03 10:15:34;;;;;;;7.13;5.33;;;3.90;99.90;;;;;;5025620;28;20172;-47
2021/01/03 10:18:05;;;;;;;9.97;5.83;;;4.00;99.90;;;;;;5020400;28;20263;-53
2021/01/03 10:20:34;;;;;;;7.30;5.07;;;4.00;99.90;;;;;;5013109;28;20611;-46
2021/01/03 10:23:00;;;;;;;6.90;5.13;;;4.00;99.90;;;;;;5022789;28;20223;-54
2021/01/03 10:25:26;;;;;;;6.67;5.23;;;4.10;99.90;;;;;;5026448;28;20211;-49
2021/01/03 10:28:21;;;;;;;5.63;4.80;;;4.20;99.90;;;;;;5018566;28;20281;-48
2021/01/03 10:30:46;;;;;;;6.70;4.83;;;4.30;99.90;;;;;;5004811;28;20204;-50
2021/01/03 10:33:12;;;;;;;4.77;4.23;;;4.40;99.90;;;;;;5025822;28;20168;-50
2021/01/03 10:35:38;;;;;;;6.47;4.53;;;4.40;99.90;;;;;;5008751;28;20267;-50
2021/01/03 10:38:05;;;;;;;5.23;4.73;;;4.50;99.90;;;;;;5017887;28;20271;-54
2021/01/03 10:40:31;;;;;;;4.97;4.20;;;4.60;99.90;;;;;;5016383;28;20287;-51
2021/01/03 10:42:57;;;;;;;6.30;4.70;;;4.60;99.90;;;;;;5019006;28;20230;-50
2021/01/03 10:45:23;;;;;;;5.23;4.37;;;4.70;99.90;;;;;;5025342;28;20195;-49
2021/01/03 10:47:49;;;;;;;4.80;4.30;;;4.80;99.90;;;;;;5021295;28;20214;-50
2021/01/03 10:50:17;;;;;;;5.40;4.03;;;4.80;99.90;;;;;;5015941;28;20212;-50
2021/01/03 10:52:43;;;;;;;4.47;4.07;;;4.80;99.90;;;;;;5012520;28;20200;-50
2021/01/03 10:55:09;;;;;;;5.93;4.10;;;4.80;99.90;;;;;;5017392;28;20191;-50
2021/01/03 10:57:35;;;;;;;4.10;3.67;;;4.80;99.90;;;;;;5025027;28;20180;-52
2021/01/03 11:00:00;;;;;;;4.33;3.90;;;4.70;99.90;;;;;;5018669;28;20192;-52
2021/01/03 11:02:27;;;;;;;3.60;2.90;;;4.80;99.90;;;;;;5023529;28;20378;-47
2021/01/03 11:04:53;;;;;;;4.07;3.30;;;4.90;99.90;;;;;;5008489;28;20184;-50
2021/01/03 11:07:18;;;;;;;3.13;2.83;;;4.90;99.90;;;;;;5005079;28;20211;-53
2021/01/03 11:09:44;;;;;;;4.70;3.30;;;4.80;99.90;;;;;;5020758;28;20668;-50
2021/01/03 11:12:12;;;;;;;3.67;2.63;;;4.80;99.90;;;;;;5020674;28;20199;-49
2021/01/03 11:14:39;;;;;;;3.57;2.53;;;4.90;99.90;;;;;;5018934;28;20207;-52
2021/01/03 11:17:08;;;;;;;2.73;2.40;;;4.90;99.90;;;;;;5021763;28;20186;-50
2021/01/03 11:19:34;;;;;;;4.53;2.57;;;4.90;99.90;;;;;;5026010;28;20177;-50
2021/01/03 11:22:03;;;;;;;3.60;2.23;;;4.80;99.90;;;;;;5013191;28;20328;-50
2021/01/03 11:24:28;;;;;;;2.77;2.43;;;4.80;99.90;;;;;;5014893;28;20188;-49
2021/01/03 11:26:54;;;;;;;2.60;2.33;;;4.80;99.90;;;;;;5023237;28;20188;-50
2021/01/03 11:29:24;;;;;;;2.90;2.60;;;4.70;99.90;;;;;;5021740;28;20215;-52
2021/01/03 11:31:53;;;;;;;5.27;2.60;;;4.70;99.90;;;;;;5024042;28;20215;-48
2021/01/03 11:34:24;;;;;;;2.47;2.27;;;4.70;99.90;;;;;;5025143;28;20172;-49
2021/01/03 11:36:53;;;;;;;3.67;2.40;;;4.60;99.90;;;;;;5021828;28;20244;-47
2021/01/03 11:39:20;;;;;;;3.37;2.47;;;4.60;99.90;;;;;;5012665;28;20290;-54
2021/01/03 11:41:48;;;;;;;3.40;2.57;;;4.60;99.90;;;;;;5024248;28;20247;-54
2021/01/03 11:44:14;;;;;;;3.23;2.70;;;4.50;99.90;;;;;;5020748;28;20164;-51
2021/01/03 11:46:40;;;;;;;3.70;2.40;;;4.50;99.90;;;;;;5024107;28;20203;-50
2021/01/03 11:49:06;;;;;;;4.47;2.90;;;4.40;99.90;;;;;;5024257;28;20283;-50
2021/01/03 11:51:31;;;;;;;2.53;2.33;;;4.40;99.90;;;;;;5021764;28;20303;-53
2021/01/03 11:53:57;;;;;;;2.23;2.03;;;4.40;99.90;;;;;;5012692;28;20242;-49
2021/01/03 11:56:23;;;;;;;3.00;2.13;;;4.40;99.90;;;;;;5021982;28;20192;-51
2021/01/03 11:58:49;;;;;;;2.20;2.00;;;4.30;99.90;;;;;;5019401;28;20176;-50
2021/01/03 12:01:20;;;;;;;2.33;2.10;;;4.30;99.90;;;;;;5015509;28;20204;-54
2021/01/03 12:03:46;;;;;;;3.33;2.27;;;4.30;99.90;;;;;;5023988;28;20196;-50
2021/01/03 12:06:18;;;;;;;2.50;2.10;;;4.30;99.90;;;;;;5024656;28;20175;-50
2021/01/03 12:08:44;;;;;;;3.43;2.70;;;4.30;99.90;;;;;;5021981;28;20219;-49
2021/01/03 12:11:16;;;;;;;2.33;2.10;;;4.30;99.90;;;;;;5012260;28;20960;-50
2021/01/03 12:13:45;;;;;;;2.53;2.33;;;4.30;99.90;;;;;;5024885;28;20641;-50
2021/01/03 12:16:14;;;;;;;2.83;2.20;;;4.30;99.90;;;;;;5020547;28;20182;-48
2021/01/03 12:18:40;;;;;;;2.20;2.00;;;4.40;99.90;;;;;;5023864;28;20666;-50
2021/01/03 12:21:05;;;;;;;2.40;2.20;;;4.40;99.90;;;;;;5025543;28;20205;-49
2021/01/03 12:23:30;;;;;;;3.17;1.90;;;4.40;99.90;;;;;;5021022;28;20526;-51
2021/01/03 12:25:56;;;;;;;1.70;1.60;;;4.40;99.90;;;;;;5014216;28;20212;-48
2021/01/03 12:28:21;;;;;;;2.13;1.50;;;4.40;99.90;;;;;;5019857;28;20196;-52
2021/01/03 12:30:47;;;;;;;1.30;1.20;;;4.40;99.90;;;;;;5026757;28;20668;-52
2021/01/03 12:33:12;;;;;;;1.80;1.13;;;4.40;99.90;;;;;;5018186;28;20188;-50
2021/01/03 12:35:39;;;;;;;3.23;1.23;;;4.40;99.90;;;;;;5027771;28;20187;-48
2021/01/03 12:38:05;;;;;;;1.30;1.20;;;4.40;99.90;;;;;;5015043;28;20200;-47
2021/01/03 12:40:30;;;;;;;2.63;1.30;;;4.40;99.90;;;;;;5012604;28;20216;-50
2021/01/03 12:42:56;;;;;;;2.40;1.17;;;4.40;99.90;;;;;;5026350;28;20757;-50
2021/01/03 12:45:21;;;;;;;3.23;1.60;;;4.40;99.90;;;;;;5021385;28;20192;-49
2021/01/03 12:47:47;;;;;;;1.57;1.37;;;4.40;99.90;;;;;;5026627;28;20191;-53
2021/01/03 12:50:12;;;;;;;5.47;1.80;;;4.40;99.90;;;;;;5017859;28;20310;-50
2021/01/03 12:52:38;;;;;;;3.00;1.30;;;4.40;99.90;;;;;;5023270;28;20202;-51
2021/01/03 12:55:04;;;;;;;1.83;1.50;;;4.40;99.90;;;;;;5009711;28;20253;-48
2021/01/03 12:57:29;;;;;;;2.00;1.47;;;4.40;99.90;;;;;;5019194;28;20550;-53
2021/01/03 12:59:55;;;;;;;2.20;2.00;;;4.40;99.90;;;;;;5019820;28;20195;-50
2021/01/03 13:02:20;;;;;;;2.60;1.50;;;4.40;99.90;;;;;;5024424;28;20882;-52
2021/01/03 13:04:46;;;;;;;1.97;1.53;;;4.40;99.90;;;;;;5023575;28;20192;-51